createdAt,value
2022-10-19T00:01:33.404Z,13.33
2022-10-19T00:04:03.511Z,8.63
2022-10-19T00:06:36.256Z,9.33
2022-10-19T00:09:21.212Z,17.27
2022-10-19T00:11:49.664Z,8.77
2022-10-19T00:14:19.509Z,11.43
2022-10-19T00:16:48.245Z,6.37
2022-10-19T00:19:26.926Z,7.57
2022-10-19T00:21:54.046Z,12.40
2022-10-19T00:24:21.294Z,7.03
2022-10-19T00:26:47.822Z,12.80
2022-10-19T00:29:14.914Z,9.07
2022-10-19T00:31:41.740Z,11.83
2022-10-19T00:34:08.281Z,11.20
2022-10-19T00:36:38.857Z,12.07
2022-10-19T00:39:07.800Z,11.50
2022-10-19T00:41:36.711Z,10.23
2022-10-19T00:44:04.740Z,15.03
2022-10-19T00:46:34.375Z,9.57
2022-10-19T00:49:23.025Z,13.83
2022-10-19T00:51:53.581Z,14.40
2022-10-19T00:54:20.489Z,9.40
2022-10-19T00:56:50.345Z,11.07
2022-10-19T00:59:20.062Z,16.87
2022-10-19T01:01:47.979Z,12.17
2022-10-19T01:04:17.270Z,12.80
2022-10-19T01:06:43.867Z,8.17
2022-10-19T01:09:10.414Z,13.23
2022-10-19T01:12:11.241Z,12.07
2022-10-19T01:15:02.672Z,17.40
2022-10-19T01:17:51.069Z,9.30
2022-10-19T01:20:20.294Z,8.83
2022-10-19T01:23:17.913Z,10.50
2022-10-19T01:26:03.414Z,13.47
2022-10-19T01:28:52.208Z,9.47
2022-10-19T01:31:34.009Z,19.07
2022-10-19T01:34:13.862Z,13.87
2022-10-19T01:36:47.504Z,11.83
2022-10-19T01:39:52.797Z,10.97
2022-10-19T01:42:28.393Z,11.13
2022-10-19T01:45:00.706Z,11.47
2022-10-19T01:47:38.704Z,13.23
2022-10-19T01:50:31.538Z,11.63
2022-10-19T01:52:59.401Z,11.50
2022-10-19T01:55:27.777Z,7.80
2022-10-19T01:58:00.791Z,11.60
2022-10-19T02:00:29.492Z,8.93
2022-10-19T02:02:56.360Z,15.50
2022-10-19T02:05:28.174Z,12.33
2022-10-19T02:08:11.083Z,12.57
2022-10-19T02:10:39.757Z,9.67
2022-10-19T02:13:08.149Z,11.63
2022-10-19T02:15:39.697Z,14.43
2022-10-19T02:18:08.249Z,14.87
2022-10-19T02:20:37.050Z,13.40
2022-10-19T02:23:07.378Z,14.13
2022-10-19T02:25:34.730Z,13.87
2022-10-19T02:28:02.642Z,9.47
2022-10-19T02:30:29.362Z,15.37
2022-10-19T02:32:56.016Z,12.00
2022-10-19T02:35:23.052Z,17.33
2022-10-19T02:37:50.370Z,10.97
2022-10-19T02:40:17.046Z,11.57
2022-10-19T02:43:00.370Z,11.23
2022-10-19T02:45:35.154Z,12.57
2022-10-19T02:48:13.759Z,16.03
2022-10-19T02:50:44.270Z,13.53
2022-10-19T02:53:11.097Z,12.70
2022-10-19T02:55:37.713Z,11.20
2022-10-19T02:58:04.241Z,14.93
2022-10-19T03:00:30.729Z,12.37
2022-10-19T03:02:57.407Z,12.97
2022-10-19T03:05:23.907Z,12.43
2022-10-19T03:07:50.412Z,19.47
2022-10-19T03:10:16.976Z,17.43
2022-10-19T03:12:43.484Z,11.97
2022-10-19T03:15:14.722Z,11.87
2022-10-19T03:17:41.268Z,12.23
2022-10-19T03:20:08.626Z,14.83
2022-10-19T03:22:35.166Z,13.37
2022-10-19T03:25:01.744Z,15.47
2022-10-19T03:27:28.334Z,16.33
2022-10-19T03:29:54.970Z,13.27
2022-10-19T03:32:21.605Z,15.67
2022-10-19T03:34:48.101Z,12.60
2022-10-19T03:37:15.403Z,22.33
2022-10-19T03:39:41.900Z,18.23
2022-10-19T03:42:08.374Z,17.37
2022-10-19T03:44:34.886Z,13.93
2022-10-19T03:47:01.406Z,14.33
2022-10-19T03:49:27.935Z,18.40
2022-10-19T03:51:54.463Z,14.33
2022-10-19T03:54:23.681Z,17.00
2022-10-19T03:56:53.663Z,18.77
2022-10-19T03:59:20.257Z,12.83
2022-10-19T04:01:46.767Z,15.40
2022-10-19T04:04:16.994Z,16.07
2022-10-19T04:06:46.227Z,16.20
2022-10-19T04:09:16.439Z,14.93
2022-10-19T04:11:43.758Z,17.07
2022-10-19T04:14:19.081Z,12.77
2022-10-19T04:16:54.071Z,19.27
2022-10-19T04:19:21.008Z,21.63
2022-10-19T04:21:49.229Z,19.83
2022-10-19T04:24:17.912Z,17.37
2022-10-19T04:26:49.667Z,19.47
2022-10-19T04:29:19.462Z,15.40
2022-10-19T04:31:48.115Z,12.50
2022-10-19T04:34:14.655Z,14.20
2022-10-19T04:36:41.124Z,19.87
2022-10-19T04:39:08.403Z,21.43
2022-10-19T04:41:35.250Z,17.87
2022-10-19T04:44:03.722Z,14.00
2022-10-19T04:46:30.681Z,20.97
2022-10-19T04:48:57.712Z,16.87
2022-10-19T04:51:25.216Z,14.60
2022-10-19T04:53:53.463Z,20.50
2022-10-19T04:56:26.231Z,13.10
2022-10-19T04:58:56.508Z,18.80
2022-10-19T05:01:24.677Z,14.37
2022-10-19T05:04:03.542Z,20.00
2022-10-19T05:06:31.437Z,19.23
2022-10-19T05:08:58.879Z,15.27
2022-10-19T05:11:25.848Z,13.67
2022-10-19T05:13:52.817Z,13.73
2022-10-19T05:16:21.846Z,15.93
2022-10-19T05:18:50.746Z,21.87
2022-10-19T05:21:18.724Z,22.10
2022-10-19T05:23:45.527Z,18.73
2022-10-19T05:26:20.230Z,17.03
2022-10-19T05:28:51.620Z,19.33
2022-10-19T05:31:20.233Z,18.37
2022-10-19T05:33:47.383Z,19.90
2022-10-19T05:36:19.419Z,14.43
2022-10-19T05:38:50.175Z,19.73
2022-10-19T05:41:17.480Z,17.87
2022-10-19T05:43:45.569Z,18.93
2022-10-19T05:46:15.017Z,12.23
2022-10-19T05:48:41.805Z,15.57
2022-10-19T05:51:11.349Z,16.17
2022-10-19T05:56:06.867Z,9.73
2022-10-19T05:58:34.548Z,21.40
2022-10-19T06:01:02.305Z,18.93
2022-10-19T06:03:29.477Z,15.80
2022-10-19T06:05:57.168Z,16.93
2022-10-19T06:08:26.546Z,17.93
2022-10-19T06:10:53.127Z,15.37
2022-10-19T06:13:20.441Z,15.80
2022-10-19T06:15:51.185Z,20.63
2022-10-19T06:18:17.743Z,16.50
2022-10-19T06:20:44.345Z,14.60
2022-10-19T06:23:10.947Z,14.83
2022-10-19T06:25:37.538Z,14.53
2022-10-19T06:28:04.594Z,17.70
2022-10-19T06:30:31.379Z,19.97
2022-10-19T06:32:59.419Z,21.23
2022-10-19T06:35:26.045Z,16.87
2022-10-19T06:37:52.594Z,14.53
2022-10-19T06:40:19.229Z,17.67
2022-10-19T06:42:45.858Z,18.47
2022-10-19T06:45:12.402Z,15.97
2022-10-19T06:47:39.170Z,23.20
2022-10-19T06:50:07.406Z,12.87
2022-10-19T06:52:35.634Z,17.33
2022-10-19T06:55:02.796Z,27.13
2022-10-19T06:57:29.519Z,14.37
2022-10-19T06:59:56.081Z,22.53
2022-10-19T07:02:22.592Z,16.90
2022-10-19T07:04:49.640Z,14.57
2022-10-19T07:07:16.173Z,21.83
2022-10-19T07:09:42.670Z,19.17
2022-10-19T07:12:11.182Z,17.33
2022-10-19T07:14:38.781Z,18.43
2022-10-19T07:17:10.279Z,23.40
2022-10-19T07:19:36.927Z,21.77
2022-10-19T07:22:03.630Z,19.00
2022-10-19T07:24:30.239Z,13.43
2022-10-19T07:26:58.104Z,25.00
2022-10-19T07:29:24.653Z,12.73
2022-10-19T07:31:51.153Z,15.43
2022-10-19T07:34:17.884Z,29.73
2022-10-19T07:36:48.184Z,14.57
2022-10-19T07:39:17.222Z,22.50
2022-10-19T07:41:44.470Z,13.13
2022-10-19T07:44:15.600Z,11.07
2022-10-19T07:46:42.668Z,20.77
2022-10-19T07:49:12.900Z,11.40
2022-10-19T07:51:40.267Z,17.13
2022-10-19T07:54:06.864Z,13.80
2022-10-19T07:56:33.469Z,14.23
2022-10-19T07:59:01.900Z,15.03
2022-10-19T08:01:31.612Z,16.83
2022-10-19T08:06:46.567Z,11.47
2022-10-19T08:09:27.769Z,18.97
2022-10-19T08:11:59.804Z,18.80
2022-10-19T08:14:26.362Z,13.87
2022-10-19T08:16:52.889Z,14.90
2022-10-19T08:19:19.676Z,17.37
2022-10-19T08:21:47.193Z,12.83
2022-10-19T08:24:15.903Z,13.57
2022-10-19T08:26:45.496Z,13.67
2022-10-19T08:29:15.205Z,11.03
2022-10-19T08:31:42.907Z,17.03
2022-10-19T08:34:10.174Z,12.10
2022-10-19T08:36:37.248Z,11.50
2022-10-19T08:39:05.882Z,17.77
2022-10-19T08:41:41.479Z,18.70
2022-10-19T08:44:10.120Z,14.30
2022-10-19T08:47:02.702Z,16.73
2022-10-19T08:49:31.826Z,12.47
2022-10-19T08:52:02.487Z,14.23
2022-10-19T08:54:40.724Z,12.23
2022-10-19T08:57:22.550Z,12.03
2022-10-19T09:00:03.072Z,8.97
2022-10-19T09:02:54.123Z,11.47
2022-10-19T09:05:40.797Z,13.10
2022-10-19T09:08:12.139Z,10.57
2022-10-19T09:10:45.098Z,10.40
2022-10-19T09:14:00.566Z,11.07
2022-10-19T09:16:29.048Z,14.63
2022-10-19T09:18:55.691Z,8.23
2022-10-19T09:21:34.463Z,10.63
2022-10-19T09:24:52.140Z,12.63
2022-10-19T09:27:21.472Z,13.83
2022-10-19T09:29:55.247Z,12.00
2022-10-19T09:32:26.758Z,8.13
2022-10-19T09:34:56.716Z,8.77
2022-10-19T09:37:26.562Z,7.27
2022-10-19T09:39:55.554Z,10.90
2022-10-19T09:42:34.338Z,11.63
2022-10-19T09:45:12.035Z,7.93
2022-10-19T09:47:42.585Z,8.77
2022-10-19T09:50:09.134Z,8.90
2022-10-19T09:52:40.760Z,6.87
2022-10-19T09:55:29.617Z,8.97
2022-10-19T09:58:27.010Z,6.53
2022-10-19T10:00:56.826Z,7.57
2022-10-19T10:03:41.770Z,4.00
2022-10-19T10:06:15.802Z,5.20
2022-10-19T10:08:50.998Z,5.43
2022-10-19T10:11:27.565Z,6.07
2022-10-19T10:13:56.226Z,7.17
2022-10-19T10:16:24.816Z,6.13
2022-10-19T10:18:58.570Z,3.60
2022-10-19T10:21:29.261Z,9.37
2022-10-19T10:24:10.885Z,6.57
2022-10-19T10:26:49.737Z,8.67
2022-10-19T10:29:20.269Z,7.27
2022-10-19T10:32:08.253Z,6.97
2022-10-19T10:34:49.360Z,5.70
2022-10-19T10:37:21.801Z,8.13
2022-10-19T10:39:53.202Z,4.63
2022-10-19T10:42:28.445Z,8.27
2022-10-19T10:44:58.300Z,10.43
2022-10-19T10:47:27.309Z,6.33
2022-10-19T10:50:24.600Z,11.30
2022-10-19T10:53:02.974Z,5.23
2022-10-19T10:55:31.109Z,5.47
2022-10-19T10:58:09.335Z,5.37
2022-10-19T11:00:40.315Z,7.60
2022-10-19T11:03:16.036Z,6.10
2022-10-19T11:05:51.828Z,5.13
2022-10-19T11:08:27.568Z,7.80
2022-10-19T11:10:57.534Z,4.27
2022-10-19T11:13:34.017Z,6.53
2022-10-19T11:16:12.670Z,8.13
2022-10-19T11:18:44.743Z,6.70
2022-10-19T11:21:15.729Z,3.97
2022-10-19T11:24:03.694Z,6.87
2022-10-19T11:26:58.725Z,4.87
2022-10-19T11:29:34.287Z,5.47
2022-10-19T11:32:00.890Z,4.83
2022-10-19T11:34:57.356Z,12.30
2022-10-19T11:37:50.205Z,11.97
2022-10-19T11:40:49.607Z,8.83
2022-10-19T11:43:44.637Z,4.90
2022-10-19T11:46:52.381Z,11.17
2022-10-19T11:49:55.680Z,5.53
2022-10-19T11:52:49.171Z,7.17
2022-10-19T11:55:45.397Z,5.40
2022-10-19T11:58:42.892Z,5.03
2022-10-19T12:01:51.324Z,3.93
2022-10-19T12:04:35.902Z,4.17
2022-10-19T12:07:16.789Z,2.20
2022-10-19T12:09:48.434Z,4.50
2022-10-19T12:12:36.128Z,6.57
2022-10-19T12:15:19.510Z,3.33
2022-10-19T12:17:49.915Z,4.40
2022-10-19T12:20:37.365Z,3.97
2022-10-19T12:23:21.639Z,5.97
2022-10-19T12:25:49.857Z,7.03
2022-10-19T12:28:26.851Z,6.03
2022-10-19T12:30:54.669Z,4.83
2022-10-19T12:33:31.414Z,4.80
2022-10-19T12:36:24.618Z,7.47
2022-10-19T12:39:01.626Z,4.60
2022-10-19T12:41:44.323Z,2.30
2022-10-19T12:44:47.919Z,7.93
2022-10-19T12:47:19.274Z,4.20
2022-10-19T12:49:47.919Z,6.57
2022-10-19T12:52:17.117Z,4.03
2022-10-19T12:54:44.408Z,5.43
2022-10-19T12:57:29.726Z,6.87
2022-10-19T13:00:32.352Z,5.20
2022-10-19T13:03:24.040Z,4.60
2022-10-19T13:06:09.452Z,3.47
2022-10-19T13:08:55.465Z,9.60
2022-10-19T13:11:23.183Z,7.43
2022-10-19T13:14:00.563Z,6.73
2022-10-19T13:16:30.111Z,5.17
2022-10-19T13:18:59.659Z,4.13
2022-10-19T13:21:44.981Z,9.53
2022-10-19T13:24:26.535Z,11.00
2022-10-19T13:27:26.264Z,7.20
2022-10-19T13:29:52.849Z,7.13
2022-10-19T13:32:33.228Z,2.27
2022-10-19T13:35:24.770Z,5.30
2022-10-19T13:38:11.016Z,4.97
2022-10-19T13:40:41.373Z,7.07
2022-10-19T13:43:19.749Z,3.70
2022-10-19T13:46:04.844Z,3.30
2022-10-19T13:48:58.543Z,7.23
2022-10-19T13:52:02.997Z,4.80
2022-10-19T13:54:51.267Z,5.77
2022-10-19T13:57:17.804Z,5.03
2022-10-19T14:00:12.891Z,4.60
2022-10-19T14:03:05.354Z,5.97
2022-10-19T14:05:58.701Z,5.87
2022-10-19T14:08:34.508Z,7.73
2022-10-19T14:11:12.422Z,4.90
2022-10-19T14:13:38.983Z,4.70
2022-10-19T14:16:05.917Z,3.83
2022-10-19T14:18:34.902Z,3.90
2022-10-19T14:21:07.726Z,6.50
2022-10-19T14:23:37.099Z,5.17
2022-10-19T14:26:07.365Z,3.93
2022-10-19T14:28:34.898Z,6.33
2022-10-19T14:31:10.468Z,6.07
2022-10-19T14:33:41.041Z,4.53
2022-10-19T14:36:14.753Z,7.57
2022-10-19T14:38:46.558Z,6.20
2022-10-19T14:41:19.545Z,6.27
2022-10-19T14:43:46.236Z,7.10
2022-10-19T14:46:14.228Z,5.17
2022-10-19T14:48:45.544Z,6.47
2022-10-19T14:51:18.547Z,10.63
2022-10-19T14:53:50.410Z,8.80
2022-10-19T14:56:32.175Z,8.90
2022-10-19T14:59:03.002Z,7.47
2022-10-19T15:01:29.610Z,3.73
2022-10-19T15:03:56.609Z,5.30
2022-10-19T15:06:28.456Z,7.53
2022-10-19T15:09:01.986Z,4.93
2022-10-19T15:11:32.584Z,4.23
2022-10-19T15:14:06.417Z,6.83
2022-10-19T15:16:35.055Z,7.63
2022-10-19T15:19:17.702Z,9.27
2022-10-19T15:21:45.118Z,4.67
2022-10-19T15:24:28.177Z,6.80
2022-10-19T15:27:08.844Z,4.40
2022-10-19T15:29:36.164Z,4.00
2022-10-19T15:32:39.672Z,7.07
2022-10-19T15:35:29.434Z,6.03
2022-10-19T15:38:05.391Z,8.20
2022-10-19T15:40:35.814Z,6.10
2022-10-19T15:43:31.070Z,10.93
2022-10-19T15:46:12.955Z,7.20
2022-10-19T15:48:44.396Z,7.87
2022-10-19T15:51:23.376Z,7.00
2022-10-19T15:53:54.661Z,4.30
2022-10-19T15:56:23.483Z,7.33
2022-10-19T15:58:51.390Z,5.63
2022-10-19T16:01:20.879Z,4.30
2022-10-19T16:03:47.674Z,9.97
2022-10-19T16:06:15.792Z,10.13
2022-10-19T16:08:42.532Z,5.70
2022-10-19T16:11:12.908Z,6.17
2022-10-19T16:13:39.399Z,4.43
2022-10-19T16:16:11.303Z,5.50
2022-10-19T16:18:38.570Z,11.37
2022-10-19T16:21:05.820Z,6.67
2022-10-19T16:23:37.809Z,4.77
2022-10-19T16:26:07.802Z,4.60
2022-10-19T16:28:34.289Z,4.30
2022-10-19T16:31:00.805Z,9.70
2022-10-19T16:33:27.305Z,7.33
2022-10-19T16:35:53.840Z,3.67
2022-10-19T16:38:20.419Z,7.30
2022-10-19T16:40:46.956Z,8.17
2022-10-19T16:43:13.466Z,9.37
2022-10-19T16:45:43.490Z,5.40
2022-10-19T16:48:12.807Z,4.83
2022-10-19T16:50:39.385Z,9.57
2022-10-19T16:53:10.445Z,9.33
2022-10-19T16:55:38.001Z,3.43
2022-10-19T16:58:04.518Z,4.63
2022-10-19T17:00:31.208Z,6.97
2022-10-19T17:02:57.793Z,5.27
2022-10-19T17:05:24.331Z,7.17
2022-10-19T17:07:54.021Z,8.27
2022-10-19T17:10:20.875Z,4.53
2022-10-19T17:12:47.554Z,4.03
2022-10-19T17:18:01.133Z,3.87
2022-10-19T17:20:27.875Z,4.13
2022-10-19T17:22:54.406Z,4.27
2022-10-19T17:25:23.455Z,5.23
2022-10-19T17:27:51.302Z,5.77
2022-10-19T17:30:18.762Z,7.27
2022-10-19T17:32:45.299Z,4.77
2022-10-19T17:35:11.798Z,5.43
2022-10-19T17:37:38.467Z,6.67
2022-10-19T17:40:05.845Z,5.70
2022-10-19T17:42:34.409Z,6.10
2022-10-19T17:45:01.027Z,6.13
2022-10-19T17:47:27.548Z,5.17
2022-10-19T17:49:54.325Z,6.23
2022-10-19T17:52:21.385Z,5.27
2022-10-19T17:54:54.677Z,4.47
2022-10-19T17:57:36.396Z,8.80
2022-10-19T18:00:03.416Z,4.33
2022-10-19T18:02:29.972Z,6.27
2022-10-19T18:04:56.558Z,7.30
2022-10-19T18:07:25.673Z,6.17
2022-10-19T18:09:52.668Z,5.30
2022-10-19T18:12:19.234Z,5.73
2022-10-19T18:14:45.789Z,7.23
2022-10-19T18:17:12.322Z,6.47
2022-10-19T18:19:38.829Z,8.77
2022-10-19T18:22:05.571Z,8.50
2022-10-19T18:24:33.000Z,6.37
2022-10-19T18:26:59.548Z,6.60
2022-10-19T18:29:26.922Z,7.07
2022-10-19T18:31:53.755Z,4.20
2022-10-19T18:34:25.461Z,8.07
2022-10-19T18:36:53.047Z,6.40
2022-10-19T18:39:20.068Z,4.33
2022-10-19T18:41:51.782Z,6.03
2022-10-19T18:44:22.143Z,4.47
2022-10-19T18:46:52.657Z,7.27
2022-10-19T18:49:19.158Z,6.77
2022-10-19T18:51:50.724Z,6.67
2022-10-19T18:54:21.088Z,7.23
2022-10-19T18:56:47.621Z,8.43
2022-10-19T18:59:14.933Z,8.90
2022-10-19T19:01:41.665Z,5.60
2022-10-19T19:04:09.509Z,8.33
2022-10-19T19:06:37.752Z,4.27
2022-10-19T19:09:08.294Z,12.13
2022-10-19T19:11:37.684Z,4.77
2022-10-19T19:14:15.932Z,4.90
2022-10-19T19:16:44.260Z,4.30
2022-10-19T19:19:13.215Z,8.40
2022-10-19T19:21:41.821Z,7.83
2022-10-19T19:24:08.639Z,5.93
2022-10-19T19:26:39.409Z,5.17
2022-10-19T19:29:05.929Z,8.00
2022-10-19T19:31:32.537Z,7.63
2022-10-19T19:34:01.106Z,8.00
2022-10-19T19:36:28.188Z,8.77
2022-10-19T19:38:56.526Z,8.37
2022-10-19T19:41:23.218Z,7.17
2022-10-19T19:43:49.703Z,7.97
2022-10-19T19:46:18.326Z,12.13
2022-10-19T19:48:46.702Z,5.27
2022-10-19T19:51:19.213Z,11.23
2022-10-19T19:53:47.202Z,8.17
2022-10-19T19:56:15.652Z,4.57
2022-10-19T19:58:43.359Z,7.27
2022-10-19T20:01:14.171Z,5.90
2022-10-19T20:03:41.390Z,6.53
2022-10-19T20:06:08.424Z,6.93
2022-10-19T20:08:36.372Z,9.97
2022-10-19T20:11:06.102Z,7.50
2022-10-19T20:13:32.750Z,7.63
2022-10-19T20:16:06.286Z,7.57
2022-10-19T20:18:35.045Z,8.53
2022-10-19T20:21:02.874Z,8.37
2022-10-19T20:23:30.072Z,5.57
2022-10-19T20:25:56.703Z,7.23
2022-10-19T20:28:27.065Z,10.60
2022-10-19T20:31:06.375Z,8.73
2022-10-19T20:33:35.799Z,10.93
2022-10-19T20:36:13.749Z,8.13
2022-10-19T20:38:40.858Z,10.87
2022-10-19T20:41:09.743Z,7.53
2022-10-19T20:43:37.637Z,7.63
2022-10-19T20:46:16.132Z,8.63
2022-10-19T20:48:42.674Z,5.83
2022-10-19T20:51:16.681Z,6.77
2022-10-19T20:53:46.360Z,5.27
2022-10-19T20:56:15.166Z,6.47
2022-10-19T20:58:42.814Z,6.37
2022-10-19T21:01:15.697Z,7.30
2022-10-19T21:03:50.921Z,12.00
2022-10-19T21:06:17.375Z,10.60
2022-10-19T21:08:44.014Z,8.00
2022-10-19T21:11:16.614Z,11.10
2022-10-19T21:13:44.003Z,10.73
2022-10-19T21:16:10.522Z,7.60
2022-10-19T21:18:37.411Z,7.23
2022-10-19T21:21:21.703Z,8.93
2022-10-19T21:23:52.274Z,14.90
2022-10-19T21:26:18.870Z,10.43
2022-10-19T21:28:49.941Z,6.43
2022-10-19T21:31:17.482Z,11.03
2022-10-19T21:33:44.756Z,8.17
2022-10-19T21:36:13.121Z,10.00
2022-10-19T21:38:39.721Z,8.93
2022-10-19T21:41:10.318Z,8.67
2022-10-19T21:43:36.850Z,9.20
2022-10-19T21:46:08.669Z,12.33
2022-10-19T21:48:35.244Z,8.53
2022-10-19T21:51:32.157Z,9.40
2022-10-19T21:53:59.217Z,9.97
2022-10-19T21:56:25.810Z,9.53
2022-10-19T21:58:54.059Z,6.60
2022-10-19T22:01:23.801Z,7.83
2022-10-19T22:03:54.637Z,13.20
2022-10-19T22:06:21.121Z,11.10
2022-10-19T22:08:47.774Z,10.60
2022-10-19T22:11:14.733Z,9.50
2022-10-19T22:13:41.982Z,6.67
2022-10-19T22:16:20.026Z,7.93
2022-10-19T22:18:47.771Z,13.20
2022-10-19T22:21:23.238Z,8.47
2022-10-19T22:23:55.197Z,8.63
2022-10-19T22:26:27.623Z,8.90
2022-10-19T22:28:59.096Z,8.07
2022-10-19T22:31:27.381Z,7.50
2022-10-19T22:33:54.364Z,7.30
2022-10-19T22:36:20.931Z,8.50
2022-10-19T22:38:47.511Z,9.23
2022-10-19T22:41:14.085Z,9.37
2022-10-19T22:43:40.580Z,8.53
2022-10-19T22:46:07.210Z,7.47
2022-10-19T22:48:34.341Z,11.23
2022-10-19T22:51:00.937Z,12.80
2022-10-19T22:53:27.466Z,7.67
2022-10-19T22:55:54.070Z,9.03
2022-10-19T22:58:20.606Z,8.63
2022-10-19T23:01:01.590Z,13.53
2022-10-19T23:03:28.143Z,8.87
2022-10-19T23:05:54.706Z,8.07
2022-10-19T23:08:21.267Z,9.67
2022-10-19T23:10:47.775Z,8.60
2022-10-19T23:13:15.214Z,7.33
2022-10-19T23:15:43.969Z,6.77
2022-10-19T23:18:11.340Z,13.27
2022-10-19T23:20:38.020Z,11.83
2022-10-19T23:23:04.805Z,8.87
2022-10-19T23:27:58.863Z,7.83
2022-10-19T23:30:25.415Z,12.73
2022-10-19T23:32:51.968Z,9.87
2022-10-19T23:35:18.487Z,6.80
2022-10-19T23:37:45.004Z,9.83
2022-10-19T23:40:11.849Z,9.30
2022-10-19T23:42:38.555Z,8.73
2022-10-19T23:45:05.566Z,7.77
2022-10-19T23:47:32.233Z,8.07
2022-10-19T23:49:58.814Z,9.10
2022-10-19T23:52:25.289Z,7.43
2022-10-19T23:54:52.004Z,7.27
2022-10-19T23:57:18.475Z,9.30
2022-10-19T23:59:44.985Z,6.67
